VLG3270 LEBB-GCLP
Flight info
| Callsign | VLG3270 |
|---|---|
| Flight time | N/A |
| Altitude | 39000 |
| Route | AMTOS L14 ADINO DCT ELVAR DCT BAROK UN873 SAMAR |
| Aircraft | A20N/M-SDE2E3FGHIRWXY/LB1 |
Departure
| Time | 2026-04-28 18:28 |
|---|---|
| Airport | Bilbao Airport (LEBB) |
Arrival
| Time | N/A |
|---|---|
| Airport | Gran Canaria Airport (GCLP) |
| Time | Latitude | Longitude | Altitude | Speed | Heading |
|---|---|---|---|---|---|
| 2026-04-28 17:56 | 43.30442 | -2.90687 | 163 ft | 0 kts | 26° |
| 2026-04-28 17:58 | 43.30424 | -2.90636 | 162 ft | 0 kts | 26° |
| 2026-04-28 18:16 | 43.30416 | -2.90642 | 162 ft | 2 kts | 26° |
| 2026-04-28 18:16 | 43.30402 | -2.90651 | 161 ft | 2 kts | 26° |
| 2026-04-28 18:16 | 43.30389 | -2.90660 | 161 ft | 2 kts | 26° |
| 2026-04-28 18:16 | 43.30375 | -2.90670 | 160 ft | 2 kts | 46° |
| 2026-04-28 18:17 | 43.30368 | -2.90688 | 160 ft | 2 kts | 85° |
| 2026-04-28 18:17 | 43.30370 | -2.90704 | 160 ft | 0 kts | 112° |
| 2026-04-28 18:17 | 43.30373 | -2.90713 | 160 ft | 1 kts | 117° |
| 2026-04-28 18:21 | 43.30371 | -2.90707 | 160 ft | 1 kts | 116° |
| 2026-04-28 18:22 | 43.30361 | -2.90678 | 160 ft | 5 kts | 115° |
| 2026-04-28 18:22 | 43.30340 | -2.90619 | 159 ft | 8 kts | 121° |
| 2026-04-28 18:22 | 43.30293 | -2.90567 | 157 ft | 9 kts | 148° |
| 2026-04-28 18:22 | 43.30232 | -2.90535 | 155 ft | 8 kts | 181° |
| 2026-04-28 18:23 | 43.30169 | -2.90565 | 154 ft | 11 kts | 195° |
| 2026-04-28 18:23 | 43.30101 | -2.90521 | 152 ft | 12 kts | 122° |
| 2026-04-28 18:23 | 43.30056 | -2.90401 | 150 ft | 15 kts | 117° |
| 2026-04-28 18:23 | 43.30006 | -2.90268 | 147 ft | 16 kts | 117° |
| 2026-04-28 18:24 | 43.29950 | -2.90119 | 143 ft | 18 kts | 116° |
| 2026-04-28 18:24 | 43.29911 | -2.90006 | 140 ft | 17 kts | 115° |
| 2026-04-28 18:24 | 43.29863 | -2.89869 | 136 ft | 13 kts | 118° |
| 2026-04-28 18:24 | 43.29819 | -2.89750 | 132 ft | 13 kts | 116° |
| 2026-04-28 18:25 | 43.29778 | -2.89643 | 128 ft | 11 kts | 118° |
| 2026-04-28 18:25 | 43.29739 | -2.89592 | 127 ft | 6 kts | 171° |
| 2026-04-28 18:25 | 43.29727 | -2.89592 | 127 ft | 0 kts | 188° |
| 2026-04-28 18:26 | 43.29715 | -2.89596 | 127 ft | 2 kts | 198° |
| 2026-04-28 18:26 | 43.29694 | -2.89619 | 127 ft | 4 kts | 226° |
| 2026-04-28 18:26 | 43.29672 | -2.89658 | 127 ft | 5 kts | 236° |
| 2026-04-28 18:26 | 43.29655 | -2.89705 | 128 ft | 5 kts | 254° |
| 2026-04-28 18:27 | 43.29651 | -2.89754 | 129 ft | 4 kts | 268° |
| 2026-04-28 18:27 | 43.29654 | -2.89798 | 130 ft | 5 kts | 282° |
| 2026-04-28 18:27 | 43.29669 | -2.89854 | 131 ft | 3 kts | 295° |
| 2026-04-28 18:27 | 43.29696 | -2.89931 | 133 ft | 37 kts | 296° |
| 2026-04-28 18:28 | 43.29930 | -2.90572 | 148 ft | 109 kts | 297° |
| 2026-04-28 18:28 | 43.30365 | -2.91764 | 173 ft | 163 kts | 296° |
| 2026-04-28 18:28 | 43.30873 | -2.93191 | 689 ft | 173 kts | 296° |
| 2026-04-28 18:28 | 43.31403 | -2.94664 | 1460 ft | 173 kts | 298° |
| 2026-04-28 18:29 | 43.31941 | -2.96136 | 2169 ft | 177 kts | 298° |
| 2026-04-28 18:29 | 43.32581 | -2.97631 | 2662 ft | 191 kts | 309° |
| 2026-04-28 18:29 | 43.33540 | -2.99014 | 3110 ft | 207 kts | 322° |
| 2026-04-28 18:29 | 43.34729 | -3.00277 | 3502 ft | 230 kts | 322° |
| 2026-04-28 18:30 | 43.35517 | -3.01218 | 3837 ft | 242 kts | 320° |
| 2026-04-28 18:30 | 43.36144 | -3.01994 | 4101 ft | 251 kts | 319° |
| 2026-04-28 18:30 | 43.37896 | -3.04243 | 4959 ft | 268 kts | 317° |
| 2026-04-28 18:30 | 43.39252 | -3.06029 | 5836 ft | 272 kts | 317° |
| 2026-04-28 18:31 | 43.40434 | -3.08022 | 6659 ft | 277 kts | 295° |
| 2026-04-28 18:31 | 43.40739 | -3.10635 | 7501 ft | 282 kts | 261° |
| 2026-04-28 18:31 | 43.39951 | -3.13073 | 8365 ft | 285 kts | 229° |
| 2026-04-28 18:31 | 43.38325 | -3.14566 | 9224 ft | 287 kts | 199° |
| 2026-04-28 18:32 | 43.36401 | -3.15222 | 10083 ft | 289 kts | 191° |
| 2026-04-28 18:32 | 43.34409 | -3.15618 | 10695 ft | 300 kts | 187° |
| 2026-04-28 18:32 | 43.32263 | -3.15831 | 11261 ft | 312 kts | 183° |
| 2026-04-28 18:32 | 43.30067 | -3.15778 | 12024 ft | 317 kts | 177° |
| 2026-04-28 18:33 | 43.27877 | -3.15409 | 12782 ft | 321 kts | 171° |
| 2026-04-28 18:33 | 43.25692 | -3.14680 | 13525 ft | 326 kts | 164° |
| 2026-04-28 18:33 | 43.23558 | -3.13564 | 14240 ft | 332 kts | 157° |
| 2026-04-28 18:33 | 43.21507 | -3.12047 | 14715 ft | 336 kts | 149° |
| 2026-04-28 18:34 | 43.19621 | -3.10183 | 14919 ft | 338 kts | 144° |
| 2026-04-28 18:34 | 43.17664 | -3.08402 | 14914 ft | 335 kts | 157° |
| 2026-04-28 18:34 | 43.15437 | -3.07562 | 14908 ft | 329 kts | 180° |
| 2026-04-28 18:34 | 43.13173 | -3.07952 | 14927 ft | 326 kts | 201° |
| 2026-04-28 18:35 | 43.11218 | -3.09473 | 15222 ft | 330 kts | 220° |
| 2026-04-28 18:35 | 43.09466 | -3.11477 | 16055 ft | 329 kts | 221° |
| 2026-04-28 18:35 | 43.07710 | -3.13466 | 16841 ft | 329 kts | 221° |
| 2026-04-28 18:35 | 43.05925 | -3.15482 | 17515 ft | 331 kts | 221° |
| 2026-04-28 18:36 | 43.04139 | -3.17496 | 18098 ft | 336 kts | 221° |
| 2026-04-28 18:36 | 43.02327 | -3.19536 | 18714 ft | 339 kts | 221° |
| 2026-04-28 18:36 | 43.00493 | -3.21601 | 19316 ft | 342 kts | 221° |
| 2026-04-28 18:36 | 42.98646 | -3.23676 | 19936 ft | 345 kts | 221° |
| 2026-04-28 18:37 | 42.96779 | -3.25771 | 20555 ft | 348 kts | 221° |
| 2026-04-28 18:37 | 42.94908 | -3.27871 | 21151 ft | 350 kts | 221° |
| 2026-04-28 18:37 | 42.93017 | -3.29990 | 21740 ft | 353 kts | 221° |
| 2026-04-28 18:37 | 42.91111 | -3.32126 | 22321 ft | 356 kts | 221° |
| 2026-04-28 18:38 | 42.89193 | -3.34274 | 22904 ft | 359 kts | 220° |
| 2026-04-28 18:38 | 42.87240 | -3.36458 | 23490 ft | 361 kts | 220° |
| 2026-04-28 18:38 | 42.85285 | -3.38641 | 24080 ft | 363 kts | 221° |
| 2026-04-28 18:38 | 42.83308 | -3.40846 | 24655 ft | 365 kts | 221° |
| 2026-04-28 18:39 | 42.81324 | -3.43057 | 25214 ft | 367 kts | 221° |
| 2026-04-28 18:39 | 42.79309 | -3.45302 | 25776 ft | 369 kts | 221° |
| 2026-04-28 18:39 | 42.77321 | -3.47515 | 26284 ft | 371 kts | 221° |
| 2026-04-28 18:39 | 42.75314 | -3.49747 | 26794 ft | 373 kts | 221° |
| 2026-04-28 18:40 | 42.73291 | -3.51995 | 27300 ft | 375 kts | 221° |
| 2026-04-28 18:40 | 42.71283 | -3.54225 | 27771 ft | 377 kts | 221° |
| 2026-04-28 18:40 | 42.69230 | -3.56503 | 28228 ft | 379 kts | 221° |
| 2026-04-28 18:40 | 42.67187 | -3.58769 | 28656 ft | 381 kts | 221° |
| 2026-04-28 18:41 | 42.65110 | -3.61070 | 29072 ft | 383 kts | 221° |
| 2026-04-28 18:41 | 42.63031 | -3.63370 | 29465 ft | 385 kts | 221° |
| 2026-04-28 18:41 | 42.60965 | -3.65654 | 29819 ft | 388 kts | 220° |
| 2026-04-28 18:41 | 42.58808 | -3.68036 | 30046 ft | 393 kts | 220° |
| 2026-04-28 18:42 | 42.56666 | -3.70403 | 30325 ft | 397 kts | 220° |
| 2026-04-28 18:42 | 42.54493 | -3.72800 | 30682 ft | 398 kts | 220° |
| 2026-04-28 18:42 | 42.52355 | -3.75155 | 31004 ft | 400 kts | 220° |
| 2026-04-28 18:42 | 42.50181 | -3.77546 | 31313 ft | 402 kts | 220° |
| 2026-04-28 18:43 | 42.47992 | -3.79950 | 31628 ft | 403 kts | 220° |
| 2026-04-28 18:43 | 42.45814 | -3.82342 | 31897 ft | 405 kts | 220° |
| 2026-04-28 18:43 | 42.43622 | -3.84748 | 32176 ft | 406 kts | 220° |
| 2026-04-28 18:43 | 42.41433 | -3.87150 | 32472 ft | 407 kts | 220° |
| 2026-04-28 18:44 | 42.39241 | -3.89550 | 32754 ft | 408 kts | 220° |
| 2026-04-28 18:44 | 42.34861 | -3.94341 | 34017 ft | 392 kts | 220° |
| 2026-04-28 18:44 | 42.32763 | -3.96632 | 34531 ft | 387 kts | 220° |
| 2026-04-28 18:45 | 42.30675 | -3.98912 | 34827 ft | 385 kts | 220° |
| 2026-04-28 18:45 | 42.28610 | -4.01166 | 35065 ft | 385 kts | 220° |
| 2026-04-28 18:45 | 42.26490 | -4.03476 | 35269 ft | 386 kts | 220° |
| 2026-04-28 18:45 | 42.24395 | -4.05756 | 35427 ft | 388 kts | 220° |
| 2026-04-28 18:46 | 42.22310 | -4.08024 | 35613 ft | 388 kts | 220° |
| 2026-04-28 18:46 | 42.20189 | -4.10327 | 35811 ft | 389 kts | 220° |
| 2026-04-28 18:46 | 42.18070 | -4.12627 | 35973 ft | 390 kts | 220° |
| 2026-04-28 18:46 | 42.15969 | -4.14906 | 36130 ft | 391 kts | 220° |
| 2026-04-28 18:47 | 42.13858 | -4.17196 | 36287 ft | 392 kts | 220° |
| 2026-04-28 18:47 | 42.11701 | -4.19532 | 36450 ft | 393 kts | 220° |
| 2026-04-28 18:47 | 42.09572 | -4.21835 | 36650 ft | 393 kts | 220° |
| 2026-04-28 18:47 | 42.07423 | -4.24158 | 36832 ft | 394 kts | 220° |
| 2026-04-28 18:48 | 42.03136 | -4.28786 | 36863 ft | 396 kts | 220° |
| 2026-04-28 18:48 | 41.98843 | -4.33412 | 36875 ft | 395 kts | 220° |
| 2026-04-28 18:49 | 41.95261 | -4.37265 | 36878 ft | 396 kts | 220° |
| 2026-04-28 18:49 | 41.90227 | -4.42670 | 36871 ft | 396 kts | 220° |
| 2026-04-28 18:50 | 41.85870 | -4.47340 | 36869 ft | 397 kts | 220° |
| 2026-04-28 18:50 | 41.81537 | -4.51975 | 36874 ft | 397 kts | 220° |
| 2026-04-28 18:51 | 41.77217 | -4.56588 | 36873 ft | 397 kts | 220° |
| 2026-04-28 18:51 | 41.72837 | -4.61259 | 36873 ft | 397 kts | 220° |
| 2026-04-28 18:52 | 41.68507 | -4.65865 | 36879 ft | 396 kts | 219° |
| 2026-04-28 18:52 | 41.64152 | -4.70489 | 36881 ft | 396 kts | 219° |
| 2026-04-28 18:53 | 41.59827 | -4.75078 | 36880 ft | 397 kts | 219° |
| 2026-04-28 18:53 | 41.55447 | -4.79716 | 36877 ft | 397 kts | 219° |
| 2026-04-28 18:54 | 41.51109 | -4.84300 | 36874 ft | 398 kts | 219° |
| 2026-04-28 18:54 | 41.46731 | -4.88918 | 36870 ft | 398 kts | 219° |
| 2026-04-28 18:55 | 41.43083 | -4.92759 | 36869 ft | 398 kts | 219° |
| 2026-04-28 18:55 | 41.38004 | -4.98098 | 36858 ft | 398 kts | 219° |
| 2026-04-28 18:56 | 41.33676 | -5.02639 | 36858 ft | 397 kts | 219° |
| 2026-04-28 18:56 | 41.29308 | -5.07213 | 36860 ft | 397 kts | 219° |
| 2026-04-28 18:57 | 41.24961 | -5.11760 | 36859 ft | 397 kts | 219° |
| 2026-04-28 18:57 | 41.20575 | -5.16338 | 36856 ft | 397 kts | 219° |
| 2026-04-28 18:58 | 41.16223 | -5.20871 | 36857 ft | 398 kts | 219° |
| 2026-04-28 18:58 | 41.11869 | -5.25399 | 36856 ft | 398 kts | 219° |
| 2026-04-28 18:59 | 41.07520 | -5.29914 | 36862 ft | 398 kts | 219° |
| 2026-04-28 18:59 | 41.03161 | -5.34434 | 36859 ft | 398 kts | 218° |
| 2026-04-28 19:00 | 40.98783 | -5.38965 | 36871 ft | 398 kts | 218° |
| 2026-04-28 19:00 | 40.94396 | -5.43496 | 36875 ft | 398 kts | 218° |
| 2026-04-28 19:01 | 40.90025 | -5.48001 | 36874 ft | 398 kts | 218° |
| 2026-04-28 19:01 | 40.85638 | -5.52517 | 36874 ft | 398 kts | 218° |
| 2026-04-28 19:02 | 40.81259 | -5.57017 | 36870 ft | 399 kts | 218° |
| 2026-04-28 19:02 | 40.76823 | -5.61568 | 36869 ft | 399 kts | 218° |
| 2026-04-28 19:03 | 40.72413 | -5.66082 | 36867 ft | 398 kts | 217° |
| 2026-04-28 19:03 | 40.68022 | -5.70571 | 36867 ft | 399 kts | 217° |
| 2026-04-28 19:04 | 40.63607 | -5.75075 | 36875 ft | 399 kts | 217° |
| 2026-04-28 19:04 | 40.59212 | -5.79555 | 36876 ft | 399 kts | 217° |
| 2026-04-28 19:05 | 40.54820 | -5.84017 | 36876 ft | 400 kts | 217° |
| 2026-04-28 19:05 | 40.50406 | -5.88499 | 36867 ft | 400 kts | 217° |
| 2026-04-28 19:06 | 40.46714 | -5.92242 | 36857 ft | 400 kts | 217° |
| 2026-04-28 19:06 | 40.41574 | -5.97443 | 36851 ft | 400 kts | 217° |
| 2026-04-28 19:07 | 40.37181 | -6.01881 | 36842 ft | 400 kts | 217° |
| 2026-04-28 19:07 | 40.32771 | -6.06328 | 36840 ft | 400 kts | 217° |
| 2026-04-28 19:08 | 40.28328 | -6.10801 | 36834 ft | 401 kts | 216° |
| 2026-04-28 19:08 | 40.23907 | -6.15241 | 36828 ft | 402 kts | 217° |
| 2026-04-28 19:09 | 40.19447 | -6.19717 | 36819 ft | 402 kts | 216° |
| 2026-04-28 19:09 | 40.15017 | -6.24155 | 36815 ft | 402 kts | 216° |
| 2026-04-28 19:10 | 40.10564 | -6.28605 | 36814 ft | 402 kts | 217° |
| 2026-04-28 19:10 | 40.06102 | -6.33061 | 36813 ft | 403 kts | 216° |
| 2026-04-28 19:11 | 40.01652 | -6.37520 | 36803 ft | 403 kts | 218° |
| 2026-04-28 19:11 | 39.97301 | -6.42209 | 36804 ft | 404 kts | 218° |
| 2026-04-28 19:12 | 39.92970 | -6.46878 | 36802 ft | 404 kts | 218° |
| 2026-04-28 19:12 | 39.88653 | -6.51523 | 36808 ft | 404 kts | 218° |
| 2026-04-28 19:13 | 39.84300 | -6.56200 | 36812 ft | 405 kts | 218° |
| 2026-04-28 19:13 | 39.79970 | -6.60844 | 36815 ft | 404 kts | 218° |
| 2026-04-28 19:14 | 39.75896 | -6.65206 | 36811 ft | 405 kts | 218° |
| 2026-04-28 19:14 | 39.71542 | -6.69860 | 36815 ft | 406 kts | 218° |
| 2026-04-28 19:15 | 39.67166 | -6.74533 | 36811 ft | 407 kts | 218° |
| 2026-04-28 19:15 | 39.63544 | -6.78393 | 36815 ft | 407 kts | 218° |
| 2026-04-28 19:16 | 39.58425 | -6.83839 | 36813 ft | 407 kts | 218° |
| 2026-04-28 19:16 | 39.54057 | -6.88478 | 36818 ft | 407 kts | 218° |
| 2026-04-28 19:17 | 39.49675 | -6.93122 | 36811 ft | 407 kts | 218° |
| 2026-04-28 19:17 | 39.45305 | -6.97750 | 36810 ft | 408 kts | 218° |
| 2026-04-28 19:18 | 39.40902 | -7.02402 | 36815 ft | 408 kts | 218° |
| 2026-04-28 19:18 | 39.36508 | -7.07037 | 36824 ft | 408 kts | 218° |
| 2026-04-28 19:19 | 39.32099 | -7.11679 | 36822 ft | 409 kts | 218° |
| 2026-04-28 19:19 | 39.27702 | -7.16301 | 36826 ft | 409 kts | 218° |
| 2026-04-28 19:20 | 39.23285 | -7.20935 | 36826 ft | 410 kts | 217° |
| 2026-04-28 19:20 | 39.18718 | -7.25275 | 36829 ft | 409 kts | 214° |
| 2026-04-28 19:21 | 39.14047 | -7.29513 | 36823 ft | 410 kts | 214° |